Prairie Center, Illinois
Current Conditions -  °F | °C
As of 3:35 AM on Thursday 23 Oct 2014 (Local Time) from KVYS Reporting Station
Clear Clear  
Wind Chill: 34°   Ceiling: Unl
Heat Index: 40°   Visibility: 10mi
Dew Point: 35°   Wind: 8mph
Humidity: 85%   Direction: 140°SE
Pressure: 30.21"   Gusts: NA
Location:  41.4349°N, 88.8687°W
Report Text: KVYS 230835Z AUTO 14007KT 10SM CLR 04/02 A3021 RMK AO2 T00420019
Loading
Personal Weather Stations






























Interactive Weather Map
Tropical Storm Tracking
New forecast layout! Learn more

10-Day Weather Forecast

Advertisements
Track Severe Weather on mobile